sensor_id;sensor_type;location;lat;lon;timestamp;pressure;altitude;pressure_sealevel;temperature;humidity
71151;BME280;59071;42.138;24.768;2022-11-15T00:01:37;100411.38;;;7.59;85.34
71151;BME280;59071;42.138;24.768;2022-11-15T00:04:04;100435.19;;;7.83;84.67
71151;BME280;59071;42.138;24.768;2022-11-15T00:06:30;100412.38;;;7.66;84.04
71151;BME280;59071;42.138;24.768;2022-11-15T00:08:58;100422.91;;;7.99;82.97
71151;BME280;59071;42.138;24.768;2022-11-15T00:11:23;100432.81;;;8.05;83.06
71151;BME280;59071;42.138;24.768;2022-11-15T00:13:49;100432.47;;;8.08;83.20
71151;BME280;59071;42.138;24.768;2022-11-15T00:16:14;100430.31;;;8.12;82.24
71151;BME280;59071;42.138;24.768;2022-11-15T00:18:40;100425.47;;;8.23;81.85
71151;BME280;59071;42.138;24.768;2022-11-15T00:21:09;100424.69;;;8.07;82.09
71151;BME280;59071;42.138;24.768;2022-11-15T00:23:35;100427.06;;;8.01;82.92
71151;BME280;59071;42.138;24.768;2022-11-15T00:26:00;100432.47;;;8.08;82.46
71151;BME280;59071;42.138;24.768;2022-11-15T00:28:26;100422.22;;;8.05;82.32
71151;BME280;59071;42.138;24.768;2022-11-15T00:30:51;100423.34;;;8.19;82.24
71151;BME280;59071;42.138;24.768;2022-11-15T00:33:17;100430.47;;;8.10;82.44
71151;BME280;59071;42.138;24.768;2022-11-15T00:35:42;100431.19;;;7.88;83.33
71151;BME280;59071;42.138;24.768;2022-11-15T00:38:08;100418.84;;;8.19;81.99
71151;BME280;59071;42.138;24.768;2022-11-15T00:40:33;100429.94;;;8.23;81.20
71151;BME280;59071;42.138;24.768;2022-11-15T00:42:58;100419.88;;;8.10;81.15
71151;BME280;59071;42.138;24.768;2022-11-15T00:45:24;100424.84;;;8.05;81.68
71151;BME280;59071;42.138;24.768;2022-11-15T00:47:50;100420.91;;;8.01;82.59
71151;BME280;59071;42.138;24.768;2022-11-15T00:50:16;100410.28;;;8.01;82.61
71151;BME280;59071;42.138;24.768;2022-11-15T00:52:42;100412.94;;;8.09;82.27
71151;BME280;59071;42.138;24.768;2022-11-15T00:55:13;100405.97;;;8.08;82.12
71151;BME280;59071;42.138;24.768;2022-11-15T00:57:40;100410.56;;;8.22;81.66
71151;BME280;59071;42.138;24.768;2022-11-15T01:00:06;100409.59;;;8.15;82.15
71151;BME280;59071;42.138;24.768;2022-11-15T01:02:32;100407.56;;;8.26;82.30
71151;BME280;59071;42.138;24.768;2022-11-15T01:04:57;100407.56;;;8.26;81.64
71151;BME280;59071;42.138;24.768;2022-11-15T01:07:23;100404.25;;;8.23;81.94
71151;BME280;59071;42.138;24.768;2022-11-15T01:09:48;100416.09;;;8.05;83.01
71151;BME280;59071;42.138;24.768;2022-11-15T01:12:13;100412.09;;;8.17;81.83
71151;BME280;59071;42.138;24.768;2022-11-15T01:14:39;100407.94;;;8.14;81.78
71151;BME280;59071;42.138;24.768;2022-11-15T01:17:04;100407.13;;;8.14;82.11
71151;BME280;59071;42.138;24.768;2022-11-15T01:19:30;100392.75;;;8.00;82.07
71151;BME280;59071;42.138;24.768;2022-11-15T01:21:55;100398.63;;;8.18;81.41
71151;BME280;59071;42.138;24.768;2022-11-15T01:24:20;100398.63;;;8.18;81.08
71151;BME280;59071;42.138;24.768;2022-11-15T01:26:46;100392.09;;;7.90;82.46
71151;BME280;59071;42.138;24.768;2022-11-15T01:29:11;100394.56;;;7.99;82.31
71151;BME280;59071;42.138;24.768;2022-11-15T01:31:37;100398.63;;;8.27;81.70
71151;BME280;59071;42.138;24.768;2022-11-15T01:34:03;100397.31;;;8.14;81.18
71151;BME280;59071;42.138;24.768;2022-11-15T01:36:28;100395.59;;;8.30;81.04
71151;BME280;59071;42.138;24.768;2022-11-15T01:38:55;100392.50;;;8.18;81.54
71151;BME280;59071;42.138;24.768;2022-11-15T01:41:27;100391.00;;;8.23;81.02
71151;BME280;59071;42.138;24.768;2022-11-15T01:43:55;100387.22;;;8.18;81.19
71151;BME280;59071;42.138;24.768;2022-11-15T01:48:48;100381.63;;;8.05;81.54
71151;BME280;59071;42.138;24.768;2022-11-15T01:51:17;100381.47;;;8.06;81.73
71151;BME280;59071;42.138;24.768;2022-11-15T01:53:46;100383.75;;;8.17;81.59
71151;BME280;59071;42.138;24.768;2022-11-15T01:56:16;100386.06;;;8.12;80.86
71151;BME280;59071;42.138;24.768;2022-11-15T01:58:43;100379.94;;;8.12;80.33
71151;BME280;59071;42.138;24.768;2022-11-15T02:01:11;100385.09;;;8.13;80.85
71151;BME280;59071;42.138;24.768;2022-11-15T02:04:00;100386.75;;;8.06;81.05
71151;BME280;59071;42.138;24.768;2022-11-15T02:06:27;100388.78;;;7.96;81.05
71151;BME280;59071;42.138;24.768;2022-11-15T02:08:52;100376.56;;;7.87;80.86
71151;BME280;59071;42.138;24.768;2022-11-15T02:11:18;100392.25;;;7.96;80.39
71151;BME280;59071;42.138;24.768;2022-11-15T02:13:44;100388.28;;;8.00;80.20
71151;BME280;59071;42.138;24.768;2022-11-15T02:27:47;100372.06;;;8.35;78.71
71151;BME280;59071;42.138;24.768;2022-11-15T02:30:23;100377.19;;;8.36;78.66
71151;BME280;59071;42.138;24.768;2022-11-15T02:33:03;100374.06;;;8.33;78.78
71151;BME280;59071;42.138;24.768;2022-11-15T02:35:48;100369.44;;;8.27;79.27
71151;BME280;59071;42.138;24.768;2022-11-15T02:45:04;100372.75;;;8.29;79.29
71151;BME280;59071;42.138;24.768;2022-11-15T02:47:34;100368.81;;;8.25;79.61
71151;BME280;59071;42.138;24.768;2022-11-15T02:50:15;100363.00;;;8.21;79.60
71151;BME280;59071;42.138;24.768;2022-11-15T02:52:45;100363.75;;;8.38;79.10
71151;BME280;59071;42.138;24.768;2022-11-15T03:06:44;100357.16;;;8.65;77.35
71151;BME280;59071;42.138;24.768;2022-11-15T03:09:35;100364.28;;;8.41;77.97
71151;BME280;59071;42.138;24.768;2022-11-15T03:12:16;100356.69;;;8.30;78.63
71151;BME280;59071;42.138;24.768;2022-11-15T03:15:05;100360.06;;;8.47;77.94
71151;BME280;59071;42.138;24.768;2022-11-15T03:17:36;100360.75;;;8.49;77.90
71151;BME280;59071;42.138;24.768;2022-11-15T03:20:05;100366.31;;;8.63;76.97
71151;BME280;59071;42.138;24.768;2022-11-15T03:22:35;100358.44;;;8.46;78.42
71151;BME280;59071;42.138;24.768;2022-11-15T03:25:05;100362.38;;;8.50;78.09
71151;BME280;59071;42.138;24.768;2022-11-15T03:27:35;100359.78;;;8.34;79.25
71151;BME280;59071;42.138;24.768;2022-11-15T03:30:05;100363.22;;;8.11;80.23
71151;BME280;59071;42.138;24.768;2022-11-15T03:32:35;100351.16;;;8.32;79.63
71151;BME280;59071;42.138;24.768;2022-11-15T03:35:06;100349.38;;;8.32;79.33
71151;BME280;59071;42.138;24.768;2022-11-15T03:37:58;100351.00;;;8.41;78.76
71151;BME280;59071;42.138;24.768;2022-11-15T03:40:30;100351.28;;;8.47;78.72
71151;BME280;59071;42.138;24.768;2022-11-15T03:45:44;100344.44;;;8.21;80.30
71151;BME280;59071;42.138;24.768;2022-11-15T03:48:16;100347.00;;;8.37;78.88
71151;BME280;59071;42.138;24.768;2022-11-15T03:50:44;100333.03;;;8.52;78.71
71151;BME280;59071;42.138;24.768;2022-11-15T03:53:11;100332.81;;;8.30;78.97
71151;BME280;59071;42.138;24.768;2022-11-15T03:55:37;100331.78;;;8.31;78.76
71151;BME280;59071;42.138;24.768;2022-11-15T03:58:02;100330.44;;;8.44;79.26
71151;BME280;59071;42.138;24.768;2022-11-15T04:00:28;100328.91;;;8.41;79.25
71151;BME280;59071;42.138;24.768;2022-11-15T04:02:54;100320.75;;;8.19;80.59
71151;BME280;59071;42.138;24.768;2022-11-15T04:05:19;100328.97;;;8.33;79.96
71151;BME280;59071;42.138;24.768;2022-11-15T04:07:45;100322.41;;;8.20;79.91
71151;BME280;59071;42.138;24.768;2022-11-15T04:10:11;100325.03;;;8.29;79.12
71151;BME280;59071;42.138;24.768;2022-11-15T04:12:42;100317.50;;;8.40;78.71
71151;BME280;59071;42.138;24.768;2022-11-15T04:17:54;100317.28;;;8.50;78.30
71151;BME280;59071;42.138;24.768;2022-11-15T04:20:25;100309.63;;;8.55;77.33
71151;BME280;59071;42.138;24.768;2022-11-15T04:25:56;100304.16;;;8.57;77.24
71151;BME280;59071;42.138;24.768;2022-11-15T04:28:23;100307.97;;;8.77;76.91
71151;BME280;59071;42.138;24.768;2022-11-15T04:30:48;100304.16;;;8.57;75.83
71151;BME280;59071;42.138;24.768;2022-11-15T04:33:14;100306.50;;;8.52;76.27
71151;BME280;59071;42.138;24.768;2022-11-15T04:35:40;100308.94;;;8.61;75.96
71151;BME280;59071;42.138;24.768;2022-11-15T04:38:07;100308.69;;;8.48;76.44
71151;BME280;59071;42.138;24.768;2022-11-15T04:40:34;100307.69;;;8.49;75.62
71151;BME280;59071;42.138;24.768;2022-11-15T04:43:00;100306.19;;;8.47;76.01
71151;BME280;59071;42.138;24.768;2022-11-15T04:45:25;100313.53;;;8.36;76.04
71151;BME280;59071;42.138;24.768;2022-11-15T04:47:51;100292.47;;;8.12;76.40
71151;BME280;59071;42.138;24.768;2022-11-15T04:50:17;100308.97;;;8.22;76.52
71151;BME280;59071;42.138;24.768;2022-11-15T04:52:48;100308.84;;;8.15;76.22
71151;BME280;59071;42.138;24.768;2022-11-15T04:55:14;100311.25;;;8.02;76.29
71151;BME280;59071;42.138;24.768;2022-11-15T04:57:40;100305.81;;;8.27;75.38
71151;BME280;59071;42.138;24.768;2022-11-15T05:00:08;100303.56;;;8.15;75.24
71151;BME280;59071;42.138;24.768;2022-11-15T05:02:34;100304.69;;;8.21;75.35
71151;BME280;59071;42.138;24.768;2022-11-15T05:05:17;100290.06;;;8.56;77.07
71151;BME280;59071;42.138;24.768;2022-11-15T05:07:43;100300.88;;;8.55;74.44
71151;BME280;59071;42.138;24.768;2022-11-15T05:10:09;100307.88;;;8.48;74.40
71151;BME280;59071;42.138;24.768;2022-11-15T05:12:35;100306.75;;;8.42;74.78
71151;BME280;59071;42.138;24.768;2022-11-15T05:15:00;100309.72;;;8.70;73.77
71151;BME280;59071;42.138;24.768;2022-11-15T05:17:26;100310.69;;;8.46;73.92
71151;BME280;59071;42.138;24.768;2022-11-15T05:19:51;100310.47;;;8.25;74.42
71151;BME280;59071;42.138;24.768;2022-11-15T05:22:17;100306.47;;;8.20;74.98
71151;BME280;59071;42.138;24.768;2022-11-15T05:24:43;100304.91;;;8.03;75.57
71151;BME280;59071;42.138;24.768;2022-11-15T05:27:08;100307.44;;;7.96;75.31
71151;BME280;59071;42.138;24.768;2022-11-15T05:29:34;100304.91;;;8.03;75.65
71151;BME280;59071;42.138;24.768;2022-11-15T05:31:59;100306.41;;;8.06;75.94
71151;BME280;59071;42.138;24.768;2022-11-15T05:34:25;100301.78;;;7.99;78.74
71151;BME280;59071;42.138;24.768;2022-11-15T05:36:52;100302.00;;;7.98;76.70
71151;BME280;59071;42.138;24.768;2022-11-15T05:39:17;100303.88;;;8.12;76.11
71151;BME280;59071;42.138;24.768;2022-11-15T05:41:47;100307.63;;;8.26;77.32
71151;BME280;59071;42.138;24.768;2022-11-15T05:44:16;100317.09;;;8.20;77.33
71151;BME280;59071;42.138;24.768;2022-11-15T05:46:43;100307.69;;;8.95;75.34
71151;BME280;59071;42.138;24.768;2022-11-15T05:49:12;100317.19;;;9.43;71.97
71151;BME280;59071;42.138;24.768;2022-11-15T05:51:39;100311.41;;;9.84;69.39
71151;BME280;59071;42.138;24.768;2022-11-15T05:54:06;100318.56;;;9.83;69.44
71151;BME280;59071;42.138;24.768;2022-11-15T05:56:32;100307.56;;;9.42;72.01
71151;BME280;59071;42.138;24.768;2022-11-15T05:58:58;100324.06;;;9.96;69.62
71151;BME280;59071;42.138;24.768;2022-11-15T06:01:25;100323.94;;;10.20;68.37
71151;BME280;59071;42.138;24.768;2022-11-15T06:03:51;100324.13;;;10.54;66.26
71151;BME280;59071;42.138;24.768;2022-11-15T06:06:16;100322.38;;;10.62;65.85
71151;BME280;59071;42.138;24.768;2022-11-15T06:08:41;100329.66;;;10.74;64.87
71151;BME280;59071;42.138;24.768;2022-11-15T06:11:07;100331.25;;;10.69;64.75
71151;BME280;59071;42.138;24.768;2022-11-15T06:13:33;100325.34;;;10.73;64.51
71151;BME280;59071;42.138;24.768;2022-11-15T06:15:59;100330.69;;;10.95;63.53
71151;BME280;59071;42.138;24.768;2022-11-15T06:18:25;100333.91;;;11.12;63.40
71151;BME280;59071;42.138;24.768;2022-11-15T06:20:51;100331.34;;;11.25;62.75
71151;BME280;59071;42.138;24.768;2022-11-15T06:23:16;100339.44;;;11.17;63.39
71151;BME280;59071;42.138;24.768;2022-11-15T06:25:42;100342.38;;;11.22;63.48
71151;BME280;59071;42.138;24.768;2022-11-15T06:28:07;100331.81;;;11.35;62.62
71151;BME280;59071;42.138;24.768;2022-11-15T06:30:33;100341.94;;;11.47;62.96
71151;BME280;59071;42.138;24.768;2022-11-15T06:33:03;100337.41;;;11.47;63.09
71151;BME280;59071;42.138;24.768;2022-11-15T06:35:30;100334.38;;;11.50;62.56
71151;BME280;59071;42.138;24.768;2022-11-15T06:37:56;100321.44;;;11.19;63.28
71151;BME280;59071;42.138;24.768;2022-11-15T06:40:21;100327.00;;;11.52;61.56
71151;BME280;59071;42.138;24.768;2022-11-15T06:42:47;100325.94;;;11.47;61.49
71151;BME280;59071;42.138;24.768;2022-11-15T06:45:12;100335.72;;;11.74;61.16
71151;BME280;59071;42.138;24.768;2022-11-15T06:47:45;100335.34;;;11.78;59.81
71151;BME280;59071;42.138;24.768;2022-11-15T06:50:11;100340.44;;;11.72;60.47
71151;BME280;59071;42.138;24.768;2022-11-15T06:52:37;100337.00;;;11.79;59.69
71151;BME280;59071;42.138;24.768;2022-11-15T06:55:02;100329.41;;;11.76;59.72
71151;BME280;59071;42.138;24.768;2022-11-15T06:57:28;100333.44;;;12.00;58.97
71151;BME280;59071;42.138;24.768;2022-11-15T06:59:53;100327.56;;;12.11;58.86
71151;BME280;59071;42.138;24.768;2022-11-15T07:02:18;100327.38;;;12.26;58.10
71151;BME280;59071;42.138;24.768;2022-11-15T07:04:44;100324.69;;;12.19;57.83
71151;BME280;59071;42.138;24.768;2022-11-15T07:07:09;100329.31;;;11.97;58.28
71151;BME280;59071;42.138;24.768;2022-11-15T07:09:35;100318.38;;;12.27;57.96
71151;BME280;59071;42.138;24.768;2022-11-15T07:12:00;100321.06;;;12.47;56.53
71151;BME280;59071;42.138;24.768;2022-11-15T07:14:25;100316.78;;;12.66;55.92
71151;BME280;59071;42.138;24.768;2022-11-15T07:16:51;100315.38;;;12.70;55.35
71151;BME280;59071;42.138;24.768;2022-11-15T07:19:16;100313.97;;;13.01;54.16
71151;BME280;59071;42.138;24.768;2022-11-15T07:21:42;100308.63;;;13.14;53.99
71151;BME280;59071;42.138;24.768;2022-11-15T07:24:07;100309.44;;;13.28;53.88
71151;BME280;59071;42.138;24.768;2022-11-15T07:26:34;100308.44;;;13.42;53.61
71151;BME280;59071;42.138;24.768;2022-11-15T07:28:59;100307.75;;;13.67;53.20
71151;BME280;59071;42.138;24.768;2022-11-15T07:31:24;100307.13;;;13.72;52.69
71151;BME280;59071;42.138;24.768;2022-11-15T07:33:50;100306.72;;;13.68;55.32
71151;BME280;59071;42.138;24.768;2022-11-15T07:36:16;100311.09;;;14.07;52.53
71151;BME280;59071;42.138;24.768;2022-11-15T07:38:41;100306.56;;;14.85;49.47
71151;BME280;59071;42.138;24.768;2022-11-15T07:41:07;100311.31;;;15.08;49.00
71151;BME280;59071;42.138;24.768;2022-11-15T07:43:32;100305.44;;;14.68;51.47
71151;BME280;59071;42.138;24.768;2022-11-15T07:46:04;100310.88;;;15.11;50.33
71151;BME280;59071;42.138;24.768;2022-11-15T07:48:30;100309.00;;;15.37;50.24
71151;BME280;59071;42.138;24.768;2022-11-15T07:50:55;100304.44;;;15.99;49.00
71151;BME280;59071;42.138;24.768;2022-11-15T07:53:21;100288.63;;;16.52;45.93
71151;BME280;59071;42.138;24.768;2022-11-15T07:55:46;100307.78;;;16.86;44.14
71151;BME280;59071;42.138;24.768;2022-11-15T07:58:12;100298.00;;;16.61;44.58
71151;BME280;59071;42.138;24.768;2022-11-15T08:00:38;100292.38;;;16.51;45.49
71151;BME280;59071;42.138;24.768;2022-11-15T08:05:28;100300.78;;;16.54;44.97
71151;BME280;59071;42.138;24.768;2022-11-15T08:07:57;100298.22;;;16.90;45.34
71151;BME280;59071;42.138;24.768;2022-11-15T08:10:23;100293.81;;;17.31;43.06
71151;BME280;59071;42.138;24.768;2022-11-15T08:15:25;100275.16;;;17.65;41.74
71151;BME280;59071;42.138;24.768;2022-11-15T08:17:57;100287.69;;;17.71;41.88
71151;BME280;59071;42.138;24.768;2022-11-15T08:20:24;100286.59;;;17.72;41.80
71151;BME280;59071;42.138;24.768;2022-11-15T08:22:50;100282.16;;;17.77;42.06
71151;BME280;59071;42.138;24.768;2022-11-15T08:25:16;100291.88;;;17.90;42.80
71151;BME280;59071;42.138;24.768;2022-11-15T08:27:42;100283.34;;;18.22;40.87
71151;BME280;59071;42.138;24.768;2022-11-15T08:30:07;100272.84;;;18.38;41.03
71151;BME280;59071;42.138;24.768;2022-11-15T08:32:33;100281.63;;;18.04;41.68
71151;BME280;59071;42.138;24.768;2022-11-15T08:34:59;100280.13;;;17.96;42.22
71151;BME280;59071;42.138;24.768;2022-11-15T08:37:24;100281.03;;;18.60;42.08
71151;BME280;59071;42.138;24.768;2022-11-15T08:39:49;100284.81;;;19.09;40.04
71151;BME280;59071;42.138;24.768;2022-11-15T08:42:15;100283.91;;;19.04;39.90
71151;BME280;59071;42.138;24.768;2022-11-15T08:44:41;100278.63;;;18.92;39.72
71151;BME280;59071;42.138;24.768;2022-11-15T08:47:07;100274.63;;;18.94;39.72
71151;BME280;59071;42.138;24.768;2022-11-15T08:49:32;100271.63;;;18.45;42.31
71151;BME280;59071;42.138;24.768;2022-11-15T08:51:58;100272.03;;;18.54;41.19
71151;BME280;59071;42.138;24.768;2022-11-15T08:54:23;100265.50;;;18.50;41.51
71151;BME280;59071;42.138;24.768;2022-11-15T08:56:48;100259.03;;;18.97;40.73
71151;BME280;59071;42.138;24.768;2022-11-15T08:59:14;100257.00;;;19.26;40.32
71151;BME280;59071;42.138;24.768;2022-11-15T09:01:39;100250.59;;;19.10;40.49
71151;BME280;59071;42.138;24.768;2022-11-15T09:04:05;100253.34;;;19.76;39.10
71151;BME280;59071;42.138;24.768;2022-11-15T09:06:30;100245.88;;;19.61;39.44
71151;BME280;59071;42.138;24.768;2022-11-15T09:08:56;100241.53;;;19.38;40.14
71151;BME280;59071;42.138;24.768;2022-11-15T09:11:22;100235.47;;;18.92;40.59
71151;BME280;59071;42.138;24.768;2022-11-15T09:13:49;100224.84;;;18.68;41.50
71151;BME280;59071;42.138;24.768;2022-11-15T09:16:15;100228.53;;;18.79;41.31
71151;BME280;59071;42.138;24.768;2022-11-15T09:18:41;100216.88;;;18.11;42.14
71151;BME280;59071;42.138;24.768;2022-11-15T09:21:06;100209.88;;;18.44;41.10
71151;BME280;59071;42.138;24.768;2022-11-15T09:23:32;100211.78;;;18.43;41.17
71151;BME280;59071;42.138;24.768;2022-11-15T09:25:59;100208.44;;;18.87;40.32
71151;BME280;59071;42.138;24.768;2022-11-15T09:28:27;100200.06;;;18.71;40.29
71151;BME280;59071;42.138;24.768;2022-11-15T09:30:56;100205.47;;;18.88;41.00
71151;BME280;59071;42.138;24.768;2022-11-15T09:33:22;100197.81;;;18.97;40.64
71151;BME280;59071;42.138;24.768;2022-11-15T09:35:48;100195.91;;;18.64;41.28
71151;BME280;59071;42.138;24.768;2022-11-15T09:38:13;100175.13;;;17.96;43.19
71151;BME280;59071;42.138;24.768;2022-11-15T09:40:38;100187.53;;;19.16;41.46
71151;BME280;59071;42.138;24.768;2022-11-15T09:45:57;100176.59;;;19.94;40.07
71151;BME280;59071;42.138;24.768;2022-11-15T09:48:54;100173.41;;;19.09;42.36
71151;BME280;59071;42.138;24.768;2022-11-15T09:51:33;100172.56;;;19.25;41.93
71151;BME280;59071;42.138;24.768;2022-11-15T09:56:30;100172.38;;;19.10;41.79
71151;BME280;59071;42.138;24.768;2022-11-15T10:04:25;100154.16;;;19.22;41.62
71151;BME280;59071;42.138;24.768;2022-11-15T10:07:00;100150.81;;;18.76;42.33
71151;BME280;59071;42.138;24.768;2022-11-15T10:09:40;100147.91;;;18.10;43.38
71151;BME280;59071;42.138;24.768;2022-11-15T10:12:09;100148.81;;;18.66;43.19
71151;BME280;59071;42.138;24.768;2022-11-15T10:14:35;100146.63;;;19.46;41.19
71151;BME280;59071;42.138;24.768;2022-11-15T10:20:10;100134.44;;;19.00;41.73
71151;BME280;59071;42.138;24.768;2022-11-15T10:22:50;100125.22;;;18.95;40.84
71151;BME280;59071;42.138;24.768;2022-11-15T10:25:27;100122.97;;;18.70;42.26
71151;BME280;59071;42.138;24.768;2022-11-15T10:28:15;100123.81;;;18.54;42.04
71151;BME280;59071;42.138;24.768;2022-11-15T10:30:47;100124.53;;;18.66;42.32
71151;BME280;59071;42.138;24.768;2022-11-15T10:33:32;100118.94;;;19.56;41.06
71151;BME280;59071;42.138;24.768;2022-11-15T10:46:33;100100.41;;;18.76;41.61
71151;BME280;59071;42.138;24.768;2022-11-15T10:51:57;100086.53;;;19.07;41.55
71151;BME280;59071;42.138;24.768;2022-11-15T10:57:32;100084.47;;;18.75;41.32
71151;BME280;59071;42.138;24.768;2022-11-15T11:00:30;100084.00;;;18.78;41.66
71151;BME280;59071;42.138;24.768;2022-11-15T11:03:05;100080.41;;;18.00;43.08
71151;BME280;59071;42.138;24.768;2022-11-15T11:08:05;100073.06;;;18.29;42.07
71151;BME280;59071;42.138;24.768;2022-11-15T11:10:55;100067.28;;;18.03;43.05
71151;BME280;59071;42.138;24.768;2022-11-15T11:13:24;100059.09;;;18.71;42.08
71151;BME280;59071;42.138;24.768;2022-11-15T11:19:17;100052.00;;;19.80;40.73
71151;BME280;59071;42.138;24.768;2022-11-15T11:47:30;99995.22;;;18.71;41.40
71151;BME280;59071;42.138;24.768;2022-11-15T11:50:11;99998.38;;;18.85;41.02
71151;BME280;59071;42.138;24.768;2022-11-15T11:52:41;99995.94;;;19.33;40.33
71151;BME280;59071;42.138;24.768;2022-11-15T11:55:18;99993.38;;;19.48;40.57
71151;BME280;59071;42.138;24.768;2022-11-15T12:00:29;99989.16;;;19.63;39.45
71151;BME280;59071;42.138;24.768;2022-11-15T12:03:14;99982.56;;;19.48;39.85
71151;BME280;59071;42.138;24.768;2022-11-15T12:05:48;99970.25;;;19.30;40.46
71151;BME280;59071;42.138;24.768;2022-11-15T12:08:31;99979.63;;;19.50;40.44
71151;BME280;59071;42.138;24.768;2022-11-15T12:13:36;99972.25;;;18.86;41.02
71151;BME280;59071;42.138;24.768;2022-11-15T12:18:37;99958.25;;;18.89;41.57
71151;BME280;59071;42.138;24.768;2022-11-15T12:21:39;99956.97;;;18.74;41.92
71151;BME280;59071;42.138;24.768;2022-11-15T12:24:14;99951.91;;;18.78;41.87
71151;BME280;59071;42.138;24.768;2022-11-15T12:26:48;99957.50;;;18.93;41.26
71151;BME280;59071;42.138;24.768;2022-11-15T12:29:47;99918.06;;;17.82;43.16
71151;BME280;59071;42.138;24.768;2022-11-15T12:32:34;99939.59;;;18.60;42.51
71151;BME280;59071;42.138;24.768;2022-11-15T12:35:03;99940.84;;;18.52;42.00
71151;BME280;59071;42.138;24.768;2022-11-15T12:45:01;99940.91;;;17.96;43.74
71151;BME280;59071;42.138;24.768;2022-11-15T12:47:27;99931.78;;;17.64;44.21
71151;BME280;59071;42.138;24.768;2022-11-15T12:49:53;99936.25;;;17.58;44.34
71151;BME280;59071;42.138;24.768;2022-11-15T12:52:19;99931.94;;;17.23;45.76
71151;BME280;59071;42.138;24.768;2022-11-15T12:54:55;99913.63;;;16.79;46.06
71151;BME280;59071;42.138;24.768;2022-11-15T12:57:29;99920.28;;;16.77;46.99
71151;BME280;59071;42.138;24.768;2022-11-15T12:59:58;99918.22;;;17.08;45.89
71151;BME280;59071;42.138;24.768;2022-11-15T13:02:29;99915.75;;;17.06;45.51
71151;BME280;59071;42.138;24.768;2022-11-15T13:17:46;99902.22;;;16.72;47.39
71151;BME280;59071;42.138;24.768;2022-11-15T13:22:51;99899.72;;;17.45;45.97
71151;BME280;59071;42.138;24.768;2022-11-15T13:27:49;99895.13;;;16.95;47.00
71151;BME280;59071;42.138;24.768;2022-11-15T13:30:21;99884.88;;;16.51;47.85
71151;BME280;59071;42.138;24.768;2022-11-15T13:32:47;99882.78;;;16.53;48.10
71151;BME280;59071;42.138;24.768;2022-11-15T13:35:33;99883.25;;;16.50;48.50
71151;BME280;59071;42.138;24.768;2022-11-15T13:38:04;99885.69;;;16.11;49.35
71151;BME280;59071;42.138;24.768;2022-11-15T13:40:35;99883.38;;;15.44;51.21
71151;BME280;59071;42.138;24.768;2022-11-15T13:43:28;99873.31;;;15.39;52.73
71151;BME280;59071;42.138;24.768;2022-11-15T13:48:40;99883.09;;;15.22;52.10
71151;BME280;59071;42.138;24.768;2022-11-15T13:53:42;99886.38;;;15.36;52.23
71151;BME280;59071;42.138;24.768;2022-11-15T13:56:12;99876.66;;;15.23;52.65
71151;BME280;59071;42.138;24.768;2022-11-15T13:58:38;99884.09;;;14.67;53.42
71151;BME280;59071;42.138;24.768;2022-11-15T14:01:05;99879.47;;;14.56;54.22
71151;BME280;59071;42.138;24.768;2022-11-15T14:03:33;99882.25;;;14.12;55.35
71151;BME280;59071;42.138;24.768;2022-11-15T14:06:10;99887.19;;;14.34;54.98
71151;BME280;59071;42.138;24.768;2022-11-15T14:08:38;99880.75;;;14.72;53.94
71151;BME280;59071;42.138;24.768;2022-11-15T14:11:24;99874.94;;;14.26;55.58
71151;BME280;59071;42.138;24.768;2022-11-15T14:16:35;99872.16;;;14.33;55.02
71151;BME280;59071;42.138;24.768;2022-11-15T14:19:02;99870.22;;;14.21;55.41
71151;BME280;59071;42.138;24.768;2022-11-15T14:21:28;99868.06;;;13.93;55.88
71151;BME280;59071;42.138;24.768;2022-11-15T14:24:17;99872.03;;;14.09;55.22
71151;BME280;59071;42.138;24.768;2022-11-15T14:26:43;99865.31;;;14.18;55.08
71151;BME280;59071;42.138;24.768;2022-11-15T14:29:28;99864.97;;;14.15;54.78
71151;BME280;59071;42.138;24.768;2022-11-15T14:32:11;99868.47;;;14.64;53.87
71151;BME280;59071;42.138;24.768;2022-11-15T14:34:37;99872.16;;;14.33;54.61
71151;BME280;59071;42.138;24.768;2022-11-15T14:37:03;99867.22;;;14.30;55.29
71151;BME280;59071;42.138;24.768;2022-11-15T14:39:28;99865.25;;;14.25;55.23
71151;BME280;59071;42.138;24.768;2022-11-15T14:41:53;99864.22;;;14.26;55.45
71151;BME280;59071;42.138;24.768;2022-11-15T14:44:19;99858.13;;;14.00;56.38
71151;BME280;59071;42.138;24.768;2022-11-15T14:46:45;99859.84;;;14.13;55.88
71151;BME280;59071;42.138;24.768;2022-11-15T14:49:11;99863.16;;;14.27;55.83
71151;BME280;59071;42.138;24.768;2022-11-15T14:51:38;99855.19;;;14.39;55.31
71151;BME280;59071;42.138;24.768;2022-11-15T14:54:03;99851.88;;;13.88;57.27
71151;BME280;59071;42.138;24.768;2022-11-15T14:56:29;99853.25;;;13.72;57.82
71151;BME280;59071;42.138;24.768;2022-11-15T14:58:54;99846.34;;;14.20;56.58
71151;BME280;59071;42.138;24.768;2022-11-15T15:01:22;99851.56;;;13.78;57.94
71151;BME280;59071;42.138;24.768;2022-11-15T15:03:48;99841.31;;;13.93;57.51
71151;BME280;59071;42.138;24.768;2022-11-15T15:06:13;99852.22;;;13.92;57.85
71151;BME280;59071;42.138;24.768;2022-11-15T15:08:40;99849.41;;;13.68;58.81
71151;BME280;59071;42.138;24.768;2022-11-15T15:11:16;99850.38;;;13.30;60.53
71151;BME280;59071;42.138;24.768;2022-11-15T15:13:42;99849.53;;;13.55;59.65
71151;BME280;59071;42.138;24.768;2022-11-15T15:16:08;99849.81;;;13.46;59.79
71151;BME280;59071;42.138;24.768;2022-11-15T15:18:34;99848.84;;;13.59;59.68
71151;BME280;59071;42.138;24.768;2022-11-15T15:21:00;99850.25;;;13.87;58.51
71151;BME280;59071;42.138;24.768;2022-11-15T15:23:28;99851.53;;;13.59;59.19